createdAt,value
2023-01-11T00:00:01.567Z,251.9
2023-01-11T00:05:01.617Z,277.1
2023-01-11T00:10:01.608Z,265.3
2023-01-11T00:20:01.580Z,245.4
2023-01-11T00:25:01.699Z,251.2
2023-01-11T00:30:01.600Z,216.2
2023-01-11T00:35:02.131Z,198.8
2023-01-11T00:40:06.509Z,192.9
2023-01-11T00:45:01.658Z,178.5
2023-01-11T00:50:01.711Z,170.1
2023-01-11T00:55:01.726Z,169.8
2023-01-11T01:00:01.577Z,177.0
2023-01-11T01:10:01.820Z,182.4
2023-01-11T01:25:01.702Z,183.4
2023-01-11T01:40:01.591Z,186.7
2023-01-11T01:50:01.636Z,204.6
2023-01-11T01:55:01.730Z,207.4
2023-01-11T02:00:01.523Z,248.6
2023-01-11T02:10:02.778Z,250.0
2023-01-11T02:15:01.666Z,225.2
2023-01-11T02:20:02.865Z,257.8
2023-01-11T02:25:01.748Z,261.1
2023-01-11T03:00:01.980Z,136.2
2023-01-11T03:05:02.730Z,142.9
2023-01-11T03:10:01.906Z,142.6
2023-01-11T03:30:01.386Z,137.2
2023-01-11T03:35:01.566Z,134.2
2023-01-11T03:50:02.962Z,183.0
2023-01-11T03:55:02.111Z,188.4
2023-01-11T04:00:03.061Z,153.5
2023-01-11T04:10:01.715Z,131.8
2023-01-11T04:20:01.608Z,92.2
2023-01-11T04:40:01.602Z,104.6
2023-01-11T04:50:01.778Z,123.1
2023-01-11T04:55:01.673Z,129.2
2023-01-11T05:00:01.627Z,129.4
2023-01-11T05:05:02.213Z,117.8
2023-01-11T05:10:08.546Z,100.6
2023-01-11T05:40:02.902Z,80.5
2023-01-11T05:55:07.008Z,88.2
2023-01-11T06:00:02.195Z,85.1
2023-01-11T06:10:02.152Z,77.8
2023-01-11T06:15:07.393Z,76.7
2023-01-11T06:20:07.939Z,84.8
2023-01-11T06:25:02.938Z,99.2
2023-01-11T06:35:02.064Z,118.4
2023-01-11T06:40:02.132Z,123.5
2023-01-11T06:50:01.772Z,116.3
2023-01-11T06:55:01.895Z,116.1
2023-01-11T07:00:01.918Z,110.5
2023-01-11T07:05:01.974Z,107.7
2023-01-11T07:15:02.072Z,104.5
2023-01-11T07:20:01.689Z,103.4
2023-01-11T07:25:01.738Z,105.4
2023-01-11T07:35:01.729Z,109.4
2023-01-11T07:40:01.649Z,105.5
2023-01-11T07:50:01.735Z,91.4
2023-01-11T07:55:01.773Z,83.3
2023-01-11T08:00:01.723Z,70.8
2023-01-11T08:05:03.927Z,91.4
2023-01-11T08:10:02.542Z,89.3
2023-01-11T08:15:01.795Z,92.0
2023-01-11T08:20:02.707Z,96.6
2023-01-11T08:25:01.869Z,100.6
2023-01-11T08:30:01.827Z,83.4
2023-01-11T08:35:03.800Z,87.8
2023-01-11T08:40:02.661Z,94.2
2023-01-11T08:45:02.070Z,99.8
2023-01-11T08:50:01.768Z,99.8
2023-01-11T08:55:01.797Z,112.9
2023-01-11T09:00:01.701Z,109.5
2023-01-11T09:05:02.155Z,101.3
2023-01-11T09:10:01.721Z,94.2
2023-01-11T09:20:06.681Z,78.4
2023-01-11T09:30:01.785Z,89.1
2023-01-11T09:35:02.060Z,94.8
2023-01-11T09:40:01.685Z,96.8
2023-01-11T09:45:02.034Z,101.3
2023-01-11T09:55:02.186Z,103.2
2023-01-11T10:20:03.374Z,125.6
2023-01-11T10:25:03.191Z,131.5
2023-01-11T10:35:03.234Z,130.7
2023-01-11T10:40:02.332Z,130.8
2023-01-11T10:50:07.057Z,131.1
2023-01-11T11:10:03.616Z,127.8
2023-01-11T11:15:01.821Z,126.1
2023-01-11T11:30:01.501Z,215.8
2023-01-11T11:35:01.659Z,183.5
2023-01-11T11:45:01.257Z,159.9
2023-01-11T11:50:01.372Z,155.9
2023-01-11T12:10:02.369Z,134.6
2023-01-11T12:15:02.047Z,133.6
2023-01-11T12:20:02.102Z,132.1
2023-01-11T12:45:01.589Z,132.9
2023-01-11T12:50:01.645Z,133.5
2023-01-11T13:10:02.420Z,148.8
2023-01-11T13:30:01.867Z,98.4
2023-01-11T13:35:01.702Z,100.6
2023-01-11T13:40:01.666Z,99.5
2023-01-11T13:45:01.682Z,107.6
2023-01-11T13:50:01.781Z,108.0
2023-01-11T14:20:01.717Z,95.8
2023-01-11T14:40:02.189Z,187.0
2023-01-11T15:00:01.301Z,93.0
2023-01-11T15:05:01.489Z,89.2
2023-01-11T15:10:01.601Z,100.9
2023-01-11T15:15:01.279Z,111.7
2023-01-11T15:20:01.554Z,113.3
2023-01-11T15:25:06.748Z,135.8
2023-01-11T15:40:07.610Z,139.8
2023-01-11T16:00:01.880Z,135.4
2023-01-11T16:20:02.385Z,215.6
2023-01-11T16:40:01.631Z,158.6
2023-01-11T16:45:02.522Z,190.0
2023-01-11T16:50:01.324Z,248.1
2023-01-11T17:10:02.425Z,312.6
2023-01-11T17:35:01.484Z,210.0
2023-01-11T17:40:04.653Z,221.7
2023-01-11T17:45:01.340Z,241.2
2023-01-11T17:50:01.367Z,253.6
2023-01-11T17:55:01.329Z,252.7
2023-01-11T18:10:04.386Z,231.6
2023-01-11T18:20:02.044Z,287.9
2023-01-11T18:40:01.640Z,298.6
2023-01-11T18:45:03.448Z,384.1
2023-01-11T18:50:01.568Z,310.2
2023-01-11T18:55:01.724Z,274.6
2023-01-11T19:00:01.638Z,259.9
2023-01-11T19:05:01.722Z,247.6
2023-01-11T19:10:03.113Z,193.2
2023-01-11T19:15:01.616Z,211.6
2023-01-11T19:25:01.695Z,249.3
2023-01-11T19:30:01.499Z,291.0
2023-01-11T19:40:01.686Z,299.1
2023-01-11T19:45:01.706Z,324.6
2023-01-11T19:50:01.530Z,359.4
2023-01-11T19:55:02.001Z,324.8
2023-01-11T20:00:01.639Z,310.2
2023-01-11T20:05:01.693Z,350.5
2023-01-11T20:10:01.703Z,315.2
2023-01-11T20:15:01.817Z,294.0
2023-01-11T20:20:01.647Z,330.6
2023-01-11T20:25:01.863Z,346.6
2023-01-11T20:35:01.759Z,317.6
2023-01-11T20:40:01.585Z,325.3
2023-01-11T20:50:02.069Z,298.4
2023-01-11T20:55:01.957Z,302.2
2023-01-11T21:00:01.888Z,306.1
2023-01-11T21:05:01.816Z,316.7
2023-01-11T21:10:01.643Z,298.2
2023-01-11T21:20:02.861Z,297.3
2023-01-11T21:25:01.766Z,341.8
2023-01-11T21:30:01.620Z,335.9
2023-01-11T21:35:01.738Z,307.8
2023-01-11T21:40:01.590Z,312.7
2023-01-11T21:50:01.687Z,331.9
2023-01-11T21:55:01.964Z,339.4
2023-01-11T22:00:02.027Z,358.8
2023-01-11T22:05:01.959Z,340.6
2023-01-11T22:10:06.039Z,316.2
2023-01-11T22:20:06.696Z,336.3
2023-01-11T22:25:01.769Z,325.6
2023-01-11T22:30:01.586Z,304.2
2023-01-11T22:35:01.750Z,340.4
2023-01-11T22:40:02.514Z,296.7
2023-01-11T22:45:01.649Z,239.0
2023-01-11T22:50:01.594Z,229.1
2023-01-11T22:55:01.691Z,196.8
2023-01-11T23:00:01.587Z,187.8
2023-01-11T23:05:01.637Z,191.2
2023-01-11T23:15:01.716Z,213.2
2023-01-11T23:20:01.746Z,232.6
2023-01-11T23:25:01.708Z,275.9
2023-01-11T23:30:01.638Z,251.6
2023-01-11T23:35:01.696Z,256.9
2023-01-11T23:40:01.591Z,238.4
2023-01-11T23:45:01.645Z,223.3
2023-01-11T23:50:01.659Z,207.4
2023-01-11T23:55:01.813Z,208.1
